createdAt,value
2023-02-08T00:02:46.347Z,0.63
2023-02-08T00:05:49.049Z,0.49
2023-02-08T00:08:51.672Z,0.48
2023-02-08T00:11:54.261Z,0.58
2023-02-08T00:14:58.207Z,0.60
2023-02-08T00:18:00.845Z,0.63
2023-02-08T00:21:08.724Z,0.70
2023-02-08T00:24:11.438Z,0.62
2023-02-08T00:27:14.031Z,0.52
2023-02-08T00:30:18.062Z,0.52
2023-02-08T00:33:20.682Z,0.50
2023-02-08T00:36:23.273Z,0.58
2023-02-08T00:39:25.891Z,0.64
2023-02-08T00:42:28.475Z,0.50
2023-02-08T00:45:33.802Z,0.44
2023-02-08T00:48:36.684Z,0.34
2023-02-08T00:51:39.442Z,0.22
2023-02-08T00:54:42.677Z,0.41
2023-02-08T00:57:45.292Z,0.45
2023-02-08T01:00:51.941Z,0.47
2023-02-08T01:03:54.597Z,0.51
2023-02-08T01:06:57.227Z,0.55
2023-02-08T01:10:00.590Z,0.59
2023-02-08T01:13:03.224Z,0.48
2023-02-08T01:16:13.452Z,0.55
2023-02-08T01:19:18.419Z,0.52
2023-02-08T01:22:20.982Z,0.46
2023-02-08T01:25:23.627Z,0.54
2023-02-08T01:28:26.377Z,0.67
2023-02-08T01:31:32.514Z,0.50
2023-02-08T01:34:35.130Z,0.42
2023-02-08T01:37:37.755Z,0.33
2023-02-08T01:40:40.660Z,0.24
2023-02-08T01:44:02.410Z,0.26
2023-02-08T01:47:06.407Z,0.20
2023-02-08T01:50:09.974Z,0.22
2023-02-08T01:53:13.450Z,0.27
2023-02-08T01:56:21.556Z,0.30
2023-02-08T01:59:28.096Z,0.16
2023-02-08T02:02:32.285Z,0.20
2023-02-08T02:05:41.118Z,0.08
2023-02-08T02:08:50.320Z,0.10
2023-02-08T02:11:55.340Z,0.09
2023-02-08T02:14:57.963Z,0.20
2023-02-08T02:18:02.691Z,0.20
2023-02-08T02:21:22.096Z,0.32
2023-02-08T02:24:54.616Z,0.34
2023-02-08T02:28:29.425Z,0.25
2023-02-08T02:32:05.053Z,0.06
2023-02-08T02:35:16.507Z,0.05
2023-02-08T02:38:29.543Z,0.09
2023-02-08T02:41:59.293Z,0.01
2023-02-08T02:45:13.720Z,0.01
2023-02-08T02:48:23.791Z,-0.06
2023-02-08T02:51:29.730Z,-0.15
2023-02-08T02:54:38.330Z,-0.19
2023-02-08T02:57:45.306Z,-0.22
2023-02-08T03:00:54.103Z,-0.23
2023-02-08T03:03:58.813Z,-0.31
2023-02-08T03:07:11.474Z,-0.24
2023-02-08T03:10:25.991Z,-0.23
2023-02-08T03:13:37.326Z,-0.40
2023-02-08T03:16:54.889Z,-0.32
2023-02-08T03:20:08.143Z,-0.27
2023-02-08T03:23:16.070Z,-0.35
2023-02-08T03:26:24.478Z,-0.36
2023-02-08T03:29:40.720Z,-0.42
2023-02-08T03:32:47.879Z,-0.32
2023-02-08T03:35:57.337Z,-0.39
2023-02-08T03:39:03.371Z,-0.50
2023-02-08T03:42:12.288Z,-0.63
2023-02-08T03:45:19.701Z,-0.63
2023-02-08T03:48:25.473Z,-0.60
2023-02-08T03:51:32.691Z,-0.50
2023-02-08T03:54:39.555Z,-0.63
2023-02-08T03:57:49.164Z,-0.63
2023-02-08T04:00:58.220Z,-0.65
2023-02-08T04:04:01.884Z,-0.59
2023-02-08T04:07:06.135Z,-0.77
2023-02-08T04:10:09.454Z,-0.79
2023-02-08T04:13:12.093Z,-0.88
2023-02-08T04:16:14.989Z,-0.75
2023-02-08T04:19:17.580Z,-0.78
2023-02-08T04:22:21.587Z,-0.71
2023-02-08T04:25:24.304Z,-0.68
2023-02-08T04:28:26.996Z,-0.85
2023-02-08T04:31:29.792Z,-0.89
2023-02-08T04:34:32.483Z,-0.92
2023-02-08T04:37:36.439Z,-0.95
2023-02-08T04:40:39.403Z,-1.01
2023-02-08T04:43:42.257Z,-0.87
2023-02-08T04:46:44.884Z,-0.91
2023-02-08T04:49:47.549Z,-0.65
2023-02-08T04:52:51.475Z,-0.65
2023-02-08T04:55:54.157Z,-0.78
2023-02-08T04:58:56.795Z,-0.69
2023-02-08T05:02:00.390Z,-0.82
2023-02-08T05:05:03.057Z,-0.84
2023-02-08T05:08:07.131Z,-0.95
2023-02-08T05:11:09.830Z,-0.89
2023-02-08T05:14:12.446Z,-0.88
2023-02-08T05:17:15.272Z,-0.84
2023-02-08T05:20:18.016Z,-0.87
2023-02-08T05:23:21.961Z,-0.99
2023-02-08T05:26:24.539Z,-0.92
2023-02-08T05:29:27.250Z,-0.91
2023-02-08T05:32:29.956Z,-0.94
2023-02-08T05:35:32.584Z,-0.94
2023-02-08T05:38:36.569Z,-0.92
2023-02-08T05:41:39.159Z,-0.83
2023-02-08T05:44:42.126Z,-0.89
2023-02-08T05:47:47.307Z,-1.07
2023-02-08T05:50:49.955Z,-0.91
2023-02-08T05:53:53.907Z,-1.02
2023-02-08T05:56:56.490Z,-1.14
2023-02-08T05:59:59.197Z,-1.22
2023-02-08T06:03:01.885Z,-1.25
2023-02-08T06:06:05.183Z,-1.27
2023-02-08T06:09:09.138Z,-1.21
2023-02-08T06:12:11.752Z,-1.13
2023-02-08T06:15:14.441Z,-1.11
2023-02-08T06:18:17.064Z,-0.96
2023-02-08T06:21:19.686Z,-0.90
2023-02-08T06:24:25.198Z,-0.87
2023-02-08T06:27:27.888Z,-0.66
2023-02-08T06:30:30.479Z,-0.67
2023-02-08T06:33:33.268Z,-0.68
2023-02-08T06:36:35.857Z,-0.54
2023-02-08T06:39:39.801Z,-0.54
2023-02-08T06:42:42.961Z,-0.44
2023-02-08T06:45:46.074Z,-0.51
2023-02-08T06:48:48.666Z,-0.51
2023-02-08T06:51:51.317Z,-0.45
2023-02-08T06:54:55.245Z,-0.48
2023-02-08T06:57:58.059Z,-0.45
2023-02-08T07:01:00.690Z,-0.47
2023-02-08T07:04:03.382Z,-0.40
2023-02-08T07:07:05.954Z,-0.33
2023-02-08T07:10:10.273Z,-0.25
2023-02-08T07:13:12.866Z,-0.33
2023-02-08T07:16:15.858Z,-0.33
2023-02-08T07:19:18.523Z,-0.31
2023-02-08T07:22:21.304Z,-0.32
2023-02-08T07:25:25.232Z,-0.54
2023-02-08T07:28:28.404Z,-0.44
2023-02-08T07:31:31.055Z,-0.81
2023-02-08T07:34:36.124Z,-0.40
2023-02-08T07:37:38.707Z,-0.18
2023-02-08T07:40:42.898Z,-0.22
2023-02-08T07:43:45.580Z,-0.16
2023-02-08T07:46:48.172Z,-0.04
2023-02-08T07:49:50.771Z,0.12
2023-02-08T07:52:53.335Z,0.09
2023-02-08T07:55:57.444Z,0.10
2023-02-08T07:59:00.189Z,0.23
2023-02-08T08:02:02.855Z,0.21
2023-02-08T08:05:05.760Z,0.30
2023-02-08T08:08:08.445Z,0.31
2023-02-08T08:11:12.355Z,0.33
2023-02-08T08:14:15.026Z,0.39
2023-02-08T08:17:18.012Z,0.41
2023-02-08T08:20:20.659Z,0.44
2023-02-08T08:23:23.848Z,0.44
2023-02-08T08:26:27.903Z,0.46
2023-02-08T08:29:32.381Z,0.77
2023-02-08T08:32:34.981Z,0.73
2023-02-08T08:35:37.656Z,0.66
2023-02-08T08:38:40.997Z,0.68
2023-02-08T08:41:44.964Z,0.79
2023-02-08T08:44:47.573Z,0.44
2023-02-08T08:47:50.188Z,0.91
2023-02-08T08:50:54.990Z,0.88
2023-02-08T08:53:57.576Z,1.22
2023-02-08T08:57:01.808Z,1.32
2023-02-08T09:00:05.627Z,1.38
2023-02-08T09:03:08.299Z,1.51
2023-02-08T09:06:10.919Z,1.74
2023-02-08T09:09:13.523Z,1.69
2023-02-08T09:12:17.491Z,1.71
2023-02-08T09:15:20.201Z,1.78
2023-02-08T09:18:22.808Z,1.93
2023-02-08T09:21:26.165Z,2.04
2023-02-08T09:24:28.834Z,2.04
2023-02-08T09:27:32.741Z,1.93
2023-02-08T09:30:35.397Z,2.09
2023-02-08T09:33:37.978Z,2.26
2023-02-08T09:36:42.196Z,2.23
2023-02-08T09:39:44.971Z,2.38
2023-02-08T09:42:55.835Z,2.44
2023-02-08T09:46:05.376Z,2.52
2023-02-08T09:49:15.448Z,2.75
2023-02-08T09:52:24.082Z,2.57
2023-02-08T09:55:38.274Z,3.01
2023-02-08T09:58:45.116Z,2.96
2023-02-08T10:01:50.403Z,2.59
2023-02-08T10:05:01.200Z,2.70
2023-02-08T10:08:03.847Z,3.01
2023-02-08T10:11:24.210Z,3.17
2023-02-08T10:14:49.687Z,3.32
2023-02-08T10:18:10.552Z,3.66
2023-02-08T10:21:28.850Z,4.24
2023-02-08T10:24:47.731Z,4.50
2023-02-08T10:28:03.629Z,4.80
2023-02-08T10:31:18.660Z,5.33
2023-02-08T10:34:30.453Z,4.85
2023-02-08T10:37:35.458Z,4.63
2023-02-08T10:40:41.067Z,4.30
2023-02-08T10:43:47.574Z,4.07
2023-02-08T10:47:02.550Z,4.12
2023-02-08T10:50:11.142Z,4.46
2023-02-08T10:53:16.762Z,4.87
2023-02-08T10:56:36.088Z,6.77
2023-02-08T10:59:49.200Z,7.98
2023-02-08T11:02:54.325Z,8.38
2023-02-08T11:05:57.131Z,8.80
2023-02-08T11:08:59.864Z,8.58
2023-02-08T11:12:03.380Z,9.04
2023-02-08T11:15:06.332Z,9.76
2023-02-08T11:18:23.534Z,10.08
2023-02-08T11:21:30.161Z,11.16
2023-02-08T11:24:40.018Z,11.58
2023-02-08T11:27:49.567Z,11.75
2023-02-08T11:31:03.466Z,11.66
2023-02-08T11:34:09.198Z,11.68
2023-02-08T11:37:17.668Z,12.51
2023-02-08T11:40:23.995Z,12.65
2023-02-08T11:43:30.072Z,13.01
2023-02-08T11:46:35.814Z,12.86
2023-02-08T11:49:41.773Z,12.60
2023-02-08T11:52:46.152Z,11.31
2023-02-08T11:56:03.555Z,10.20
2023-02-08T11:59:19.799Z,8.98
2023-02-08T12:02:32.525Z,8.45
2023-02-08T12:05:45.097Z,7.84
2023-02-08T12:08:54.151Z,7.43
2023-02-08T12:12:08.979Z,7.21
2023-02-08T12:15:23.786Z,7.03
2023-02-08T12:18:49.140Z,7.03
2023-02-08T12:21:59.103Z,7.35
2023-02-08T12:25:20.412Z,7.32
2023-02-08T12:28:32.340Z,8.33
2023-02-08T12:31:47.232Z,8.51
2023-02-08T12:35:05.564Z,8.31
2023-02-08T12:38:38.046Z,8.36
2023-02-08T12:41:49.653Z,8.28
2023-02-08T12:45:09.918Z,7.69
2023-02-08T12:48:28.844Z,7.66
2023-02-08T12:51:40.385Z,8.22
2023-02-08T12:54:50.372Z,9.14
2023-02-08T12:57:58.156Z,9.46
2023-02-08T13:01:08.965Z,10.94
2023-02-08T13:04:16.436Z,12.58
2023-02-08T13:07:25.075Z,13.52
2023-02-08T13:10:34.403Z,14.01
2023-02-08T13:13:40.604Z,14.02
2023-02-08T13:16:47.736Z,14.22
2023-02-08T13:20:00.545Z,13.62
2023-02-08T13:23:08.943Z,14.19
2023-02-08T13:26:16.505Z,15.05
2023-02-08T13:29:21.477Z,16.25
2023-02-08T13:32:30.091Z,16.67
2023-02-08T13:35:33.525Z,16.73
2023-02-08T13:38:37.882Z,17.07
2023-02-08T13:41:53.513Z,17.05
2023-02-08T13:44:59.070Z,17.30
2023-02-08T13:48:03.560Z,17.19
2023-02-08T13:51:07.931Z,16.53
2023-02-08T13:54:12.997Z,15.45
2023-02-08T13:57:53.711Z,14.96
2023-02-08T14:01:13.642Z,14.88
2023-02-08T14:04:33.759Z,14.49
2023-02-08T14:07:44.559Z,13.89
2023-02-08T14:11:01.310Z,13.70
2023-02-08T14:14:13.760Z,13.40
2023-02-08T14:17:21.553Z,12.85
2023-02-08T14:20:30.450Z,12.38
2023-02-08T14:23:39.467Z,11.97
2023-02-08T14:26:43.151Z,12.08
2023-02-08T14:29:56.769Z,11.58
2023-02-08T14:33:17.225Z,11.35
2023-02-08T14:36:28.720Z,10.86
2023-02-08T14:39:34.518Z,10.90
2023-02-08T14:42:56.291Z,10.80
2023-02-08T14:46:38.410Z,10.60
2023-02-08T14:49:45.602Z,9.83
2023-02-08T14:52:53.852Z,9.15
2023-02-08T14:56:02.106Z,8.49
2023-02-08T14:59:08.970Z,8.15
2023-02-08T15:02:17.093Z,7.68
2023-02-08T15:05:26.685Z,7.66
2023-02-08T15:08:29.342Z,7.61
2023-02-08T15:11:34.205Z,7.87
2023-02-08T15:14:40.727Z,7.99
2023-02-08T15:17:47.523Z,7.60
2023-02-08T15:21:02.090Z,7.25
2023-02-08T15:24:14.152Z,7.04
2023-02-08T15:27:22.001Z,6.78
2023-02-08T15:30:26.398Z,6.77
2023-02-08T15:33:29.397Z,6.67
2023-02-08T15:36:34.753Z,6.33
2023-02-08T15:39:39.741Z,6.20
2023-02-08T15:42:45.079Z,6.10
2023-02-08T15:45:57.489Z,6.11
2023-02-08T15:49:00.706Z,6.14
2023-02-08T15:52:06.572Z,6.17
2023-02-08T15:55:13.497Z,5.90
2023-02-08T15:58:28.443Z,5.87
2023-02-08T16:01:32.451Z,5.94
2023-02-08T16:04:43.485Z,5.67
2023-02-08T16:07:48.774Z,5.52
2023-02-08T16:10:54.743Z,5.74
2023-02-08T16:13:59.485Z,5.72
2023-02-08T16:17:02.125Z,5.56
2023-02-08T16:20:22.658Z,5.47
2023-02-08T16:23:28.760Z,5.39
2023-02-08T16:26:35.431Z,5.16
2023-02-08T16:29:40.115Z,5.28
2023-02-08T16:32:42.756Z,5.22
2023-02-08T16:35:45.404Z,5.06
2023-02-08T16:39:24.292Z,5.20
2023-02-08T16:42:33.775Z,5.14
2023-02-08T16:45:36.443Z,5.11
2023-02-08T16:48:40.854Z,4.98
2023-02-08T16:51:45.041Z,4.96
2023-02-08T16:54:49.055Z,4.68
2023-02-08T16:57:53.274Z,4.81
2023-02-08T17:00:57.635Z,4.77
2023-02-08T17:04:00.341Z,4.70
2023-02-08T17:07:03.033Z,4.65
2023-02-08T17:10:09.533Z,4.46
2023-02-08T17:13:20.470Z,4.39
2023-02-08T17:16:26.726Z,4.51
2023-02-08T17:19:29.360Z,4.04
2023-02-08T17:22:31.932Z,4.38
2023-02-08T17:25:36.531Z,4.25
2023-02-08T17:28:39.567Z,4.00
2023-02-08T17:31:42.199Z,4.24
2023-02-08T17:34:44.824Z,3.84
2023-02-08T17:37:49.429Z,4.04
2023-02-08T17:40:53.388Z,3.98
2023-02-08T17:43:57.711Z,3.99
2023-02-08T17:47:00.302Z,3.95
2023-02-08T17:50:03.439Z,3.89
2023-02-08T17:53:06.032Z,3.80
2023-02-08T17:56:11.267Z,3.74
2023-02-08T17:59:13.888Z,3.64
2023-02-08T18:02:16.500Z,3.71
2023-02-08T18:05:22.137Z,3.76
2023-02-08T18:08:24.789Z,3.94
2023-02-08T18:11:28.729Z,3.80
2023-02-08T18:14:31.327Z,3.90
2023-02-08T18:17:34.654Z,3.58
2023-02-08T18:20:37.318Z,3.53
2023-02-08T18:23:40.472Z,3.54
2023-02-08T18:26:44.412Z,3.37
2023-02-08T18:29:47.160Z,3.41
2023-02-08T18:32:49.757Z,3.22
2023-02-08T18:35:52.332Z,3.48
2023-02-08T18:38:55.726Z,3.51
2023-02-08T18:41:59.778Z,3.26
2023-02-08T18:45:02.364Z,3.36
2023-02-08T18:48:04.941Z,3.43
2023-02-08T18:51:09.935Z,3.11
2023-02-08T18:54:14.199Z,3.26
2023-02-08T18:57:18.241Z,3.21
2023-02-08T19:00:21.907Z,3.19
2023-02-08T19:03:24.493Z,3.21
2023-02-08T19:06:28.778Z,2.94
2023-02-08T19:09:31.394Z,2.92
2023-02-08T19:12:37.195Z,2.67
2023-02-08T19:15:41.238Z,2.80
2023-02-08T19:18:44.084Z,2.91
2023-02-08T19:21:46.692Z,3.07
2023-02-08T19:24:49.404Z,3.07
2023-02-08T19:27:53.376Z,2.89
2023-02-08T19:31:03.665Z,2.88
2023-02-08T19:34:06.885Z,2.92
2023-02-08T19:37:09.476Z,2.91
2023-02-08T19:40:13.226Z,2.09
2023-02-08T19:43:17.146Z,2.35
2023-02-08T19:46:22.356Z,2.65
2023-02-08T19:49:27.165Z,2.62
2023-02-08T19:52:29.787Z,2.31
2023-02-08T19:55:32.385Z,2.27
2023-02-08T19:58:37.862Z,2.25
2023-02-08T20:01:40.440Z,2.15
2023-02-08T20:04:43.072Z,2.35
2023-02-08T20:07:45.650Z,2.47
2023-02-08T20:10:49.299Z,2.35
2023-02-08T20:13:55.240Z,2.42
2023-02-08T20:16:58.314Z,2.06
2023-02-08T20:20:00.893Z,2.40
2023-02-08T20:23:14.064Z,1.89
2023-02-08T20:26:25.302Z,2.25
2023-02-08T20:29:29.743Z,2.38
2023-02-08T20:32:32.342Z,2.19
2023-02-08T20:35:36.953Z,1.63
2023-02-08T20:38:40.283Z,1.29
2023-02-08T20:41:44.256Z,1.74
2023-02-08T20:44:48.245Z,2.08
2023-02-08T20:47:50.876Z,2.04
2023-02-08T20:50:53.486Z,1.87
2023-02-08T20:53:58.216Z,1.82
2023-02-08T20:57:00.808Z,1.92
2023-02-08T21:00:05.675Z,1.99
2023-02-08T21:03:08.261Z,1.14
2023-02-08T21:06:14.784Z,1.89
2023-02-08T21:09:19.536Z,1.91
2023-02-08T21:12:22.123Z,2.01
2023-02-08T21:15:26.094Z,1.66
2023-02-08T21:18:28.682Z,1.90
2023-02-08T21:21:31.404Z,2.14
2023-02-08T21:24:34.003Z,2.04
2023-02-08T21:27:36.640Z,2.17
2023-02-08T21:30:41.220Z,2.19
2023-02-08T21:33:45.040Z,1.68
2023-02-08T21:36:47.613Z,1.89
2023-02-08T21:39:50.201Z,1.92
2023-02-08T21:42:52.800Z,1.86
2023-02-08T21:45:56.791Z,2.03
2023-02-08T21:49:17.073Z,1.87
2023-02-08T21:52:36.560Z,1.91
2023-02-08T21:55:39.142Z,1.76
2023-02-08T21:58:41.761Z,1.81
2023-02-08T22:01:45.782Z,1.91
2023-02-08T22:05:07.199Z,1.92
2023-02-08T22:08:09.868Z,1.89
2023-02-08T22:11:14.864Z,1.93
2023-02-08T22:14:17.544Z,1.85
2023-02-08T22:17:21.509Z,1.77
2023-02-08T22:20:24.642Z,1.62
2023-02-08T22:23:27.239Z,1.76
2023-02-08T22:26:29.869Z,1.78
2023-02-08T22:29:32.524Z,1.79
2023-02-08T22:32:36.572Z,1.81
2023-02-08T22:35:40.308Z,1.56
2023-02-08T22:38:42.923Z,1.45
2023-02-08T22:41:45.515Z,1.64
2023-02-08T22:44:48.125Z,1.76
2023-02-08T22:47:52.113Z,1.66
2023-02-08T22:50:55.006Z,1.69
2023-02-08T22:53:57.605Z,1.68
2023-02-08T22:57:00.289Z,1.51
2023-02-08T23:00:03.614Z,1.57
2023-02-08T23:03:07.617Z,1.57
2023-02-08T23:06:11.741Z,1.53
2023-02-08T23:09:14.309Z,1.50
2023-02-08T23:12:16.942Z,1.47
2023-02-08T23:15:19.491Z,1.38
2023-02-08T23:18:23.887Z,1.42
2023-02-08T23:21:26.612Z,1.48
2023-02-08T23:24:29.250Z,1.49
2023-02-08T23:27:31.860Z,1.26
2023-02-08T23:30:34.460Z,1.37
2023-02-08T23:33:38.736Z,1.50
2023-02-08T23:36:41.317Z,1.38
2023-02-08T23:39:43.908Z,1.23
2023-02-08T23:42:46.496Z,1.32
2023-02-08T23:45:49.121Z,1.42
2023-02-08T23:48:53.235Z,1.36
2023-02-08T23:51:55.833Z,1.23
2023-02-08T23:54:58.423Z,1.27
2023-02-08T23:58:01.041Z,1.35
